PTAO2: Poteau River, Poteau, OK

                                SHEF ID:       PTAO2     Poteau River at Poteau, OK
STATION TYPE:
Regulating: Stage = 20.00, Flow = 7395

PRECIP STAGE RIV-FLOW VOLTAGE BAT-LOAD
in ft cfs volt volt
Ccp-Rev Ccp-Rev Ccp-Rev Ccp-Rev Ccp-Rev
(America/Chicago)
04/27 00:00 0.00 13.01 3566 12.90 12.44
04/27 01:00 0.00 12.45 3284 12.88 12.42
04/27 02:00 0.00 11.93 3030 12.86 12.41
04/27 03:00 0.00 11.41 2785 12.85 12.40
04/27 04:00 0.00 10.91 2590 12.82 12.37
04/27 05:00 0.00 10.41 2413 12.82 12.36
04/27 06:00 0.00 9.93 2246 12.80 12.34
04/27 07:00 0.00 9.49 2096 12.80 12.33
04/27 08:00 0.00 9.07 1958 13.72 12.69
04/27 09:00 0.00 8.70 1876 13.87 13.09
04/27 10:00 0.00 8.36 1801 13.36 13.01
04/27 11:00 0.00 8.05 1732 13.29 12.82
04/27 12:00 0.00 7.76 1667 13.26 12.76
04/27 13:00 0.00 7.48 1604 13.26 12.76
04/27 14:00 0.00 7.22 1545 13.23 12.73
04/27 15:00 0.00 6.97 1488 13.16 12.67
04/27 16:00 0.00 6.71 1429 13.11 12.63
04/27 17:00 0.00 6.47 1374 13.07 12.56
04/27 18:00 0.00 6.22 1318 13.13 12.58
04/27 19:00 0.00 5.98 1276 13.26 12.65
04/27 20:00 0.00 5.74 1234 13.10 12.63
04/27 21:00 0.00 5.48 1188 12.96 12.48
04/27 22:00 0.00 5.24 1144 12.92 12.42
04/27 23:00 0.00 5.02 1103 12.90 12.40
Data processed at Tue 28Apr2026 04:48 GMT

NOTICE: If you are parsing this page

Please convert to using our Data API. Starting early 2026 we will be migrating to: https://water.usace.army.mil with modern pages rendered in JavaScript. When this migration completes you will no longer be able to scrape this page! CWMSDataAPI (CDA)

Timeseries IDs (TSIDs)

TSIDs used from left to right in the data table
POTE.Precip-Inc.Total.1Hour.1Hour.Ccp-Rev
POTE.Stage.Inst.1Hour.0.Ccp-Rev
POTE.Flow.Inst.1Hour.0.Ccp-Rev
POTE.Volt-Battery.Inst.1Hour.0.Ccp-Rev
POTE.Volt-Battery Load.Inst.1Hour.0.Ccp-Rev

                            

All information presented herein is the property of the government of the United States of America and may be revised or deleted at any time without prior notice. Dissemination of this information without the expressed written consent of the Public Affairs Office, Tulsa District U.S. Army Corps of Engineers is strictly prohibited. These data are gathered electronically and, as presented, have NOT undergone any form of quality control. These data are NOT guaranteed to be valid or correct.